sensor_id;sensor_type;location;lat;lon;timestamp;temperature;humidity
70475;DHT22;57944;48.722;9.316;2023-04-26T02:06:08;3.80;99.90
70475;DHT22;57944;48.722;9.316;2023-04-26T02:08:40;3.80;99.90
70475;DHT22;57944;48.722;9.316;2023-04-26T02:11:10;3.80;99.90
70475;DHT22;57944;48.722;9.316;2023-04-26T02:13:40;3.80;99.90
70475;DHT22;57944;48.722;9.316;2023-04-26T02:16:10;3.80;99.90
70475;DHT22;57944;48.722;9.316;2023-04-26T02:18:41;3.80;99.90
70475;DHT22;57944;48.722;9.316;2023-04-26T02:21:15;3.90;99.90
70475;DHT22;57944;48.722;9.316;2023-04-26T02:23:48;4.00;99.90
70475;DHT22;57944;48.722;9.316;2023-04-26T02:26:18;4.00;99.90
70475;DHT22;57944;48.722;9.316;2023-04-26T02:28:48;3.90;99.90
70475;DHT22;57944;48.722;9.316;2023-04-26T02:31:18;3.90;99.90
70475;DHT22;57944;48.722;9.316;2023-04-26T02:33:49;3.80;99.90
70475;DHT22;57944;48.722;9.316;2023-04-26T02:36:19;3.70;99.90
70475;DHT22;57944;48.722;9.316;2023-04-26T02:38:53;3.80;99.90
70475;DHT22;57944;48.722;9.316;2023-04-26T02:41:23;3.70;99.90
70475;DHT22;57944;48.722;9.316;2023-04-26T02:43:53;3.40;99.90
70475;DHT22;57944;48.722;9.316;2023-04-26T02:46:23;3.30;99.90
70475;DHT22;57944;48.722;9.316;2023-04-26T02:48:53;3.40;99.90
70475;DHT22;57944;48.722;9.316;2023-04-26T02:51:23;3.50;99.90
70475;DHT22;57944;48.722;9.316;2023-04-26T02:53:56;3.70;99.90
70475;DHT22;57944;48.722;9.316;2023-04-26T02:56:26;3.70;99.90
70475;DHT22;57944;48.722;9.316;2023-04-26T02:58:56;3.70;99.90
70475;DHT22;57944;48.722;9.316;2023-04-26T03:01:26;3.60;99.90
70475;DHT22;57944;48.722;9.316;2023-04-26T03:03:56;3.70;99.90
70475;DHT22;57944;48.722;9.316;2023-04-26T03:06:27;3.80;99.90
70475;DHT22;57944;48.722;9.316;2023-04-26T03:09:00;3.80;99.90
70475;DHT22;57944;48.722;9.316;2023-04-26T03:11:31;3.70;99.90
70475;DHT22;57944;48.722;9.316;2023-04-26T03:14:01;3.70;99.90
70475;DHT22;57944;48.722;9.316;2023-04-26T03:16:37;3.80;99.90
70475;DHT22;57944;48.722;9.316;2023-04-26T03:19:10;4.00;99.90
70475;DHT22;57944;48.722;9.316;2023-04-26T03:21:40;4.10;99.90
70475;DHT22;57944;48.722;9.316;2023-04-26T03:24:13;4.10;99.90
70475;DHT22;57944;48.722;9.316;2023-04-26T03:26:44;4.10;99.90
70475;DHT22;57944;48.722;9.316;2023-04-26T03:29:14;3.80;99.90
70475;DHT22;57944;48.722;9.316;2023-04-26T03:31:44;3.60;99.90
70475;DHT22;57944;48.722;9.316;2023-04-26T03:34:14;3.60;99.90
70475;DHT22;57944;48.722;9.316;2023-04-26T03:36:44;3.60;99.90
70475;DHT22;57944;48.722;9.316;2023-04-26T03:39:16;3.70;99.90
70475;DHT22;57944;48.722;9.316;2023-04-26T03:41:47;3.80;99.90
70475;DHT22;57944;48.722;9.316;2023-04-26T03:44:17;3.80;99.90
70475;DHT22;57944;48.722;9.316;2023-04-26T03:46:47;3.90;99.90
70475;DHT22;57944;48.722;9.316;2023-04-26T03:49:17;3.90;99.90
70475;DHT22;57944;48.722;9.316;2023-04-26T03:51:48;3.80;99.90
70475;DHT22;57944;48.722;9.316;2023-04-26T03:54:20;3.60;99.90
70475;DHT22;57944;48.722;9.316;2023-04-26T03:56:50;3.40;99.90
70475;DHT22;57944;48.722;9.316;2023-04-26T03:59:21;3.40;99.90
70475;DHT22;57944;48.722;9.316;2023-04-26T04:01:50;3.40;99.90
70475;DHT22;57944;48.722;9.316;2023-04-26T04:04:21;3.30;99.90
70475;DHT22;57944;48.722;9.316;2023-04-26T04:06:52;3.20;99.90
70475;DHT22;57944;48.722;9.316;2023-04-26T04:09:25;3.10;99.90
70475;DHT22;57944;48.722;9.316;2023-04-26T04:11:55;3.00;99.90
70475;DHT22;57944;48.722;9.316;2023-04-26T04:14:25;2.80;99.90
70475;DHT22;57944;48.722;9.316;2023-04-26T04:16:55;2.70;99.90
70475;DHT22;57944;48.722;9.316;2023-04-26T04:19:29;2.60;99.90
70475;DHT22;57944;48.722;9.316;2023-04-26T04:21:59;2.50;99.90
70475;DHT22;57944;48.722;9.316;2023-04-26T04:24:32;2.50;99.90
70475;DHT22;57944;48.722;9.316;2023-04-26T04:27:02;2.50;99.90
70475;DHT22;57944;48.722;9.316;2023-04-26T04:29:32;2.60;99.90
70475;DHT22;57944;48.722;9.316;2023-04-26T04:32:03;2.50;99.90
70475;DHT22;57944;48.722;9.316;2023-04-26T04:34:33;2.70;99.90
70475;DHT22;57944;48.722;9.316;2023-04-26T04:37:05;2.60;99.90
70475;DHT22;57944;48.722;9.316;2023-04-26T04:39:38;2.70;99.90
70475;DHT22;57944;48.722;9.316;2023-04-26T04:42:08;2.90;99.90
70475;DHT22;57944;48.722;9.316;2023-04-26T04:44:38;3.00;99.90
70475;DHT22;57944;48.722;9.316;2023-04-26T04:47:08;3.10;99.90
70475;DHT22;57944;48.722;9.316;2023-04-26T04:49:38;3.20;99.90
70475;DHT22;57944;48.722;9.316;2023-04-26T04:52:09;3.30;99.90
70475;DHT22;57944;48.722;9.316;2023-04-26T04:54:41;3.50;99.90
70475;DHT22;57944;48.722;9.316;2023-04-26T04:57:12;3.60;99.90
70475;DHT22;57944;48.722;9.316;2023-04-26T04:59:43;3.80;99.90
70475;DHT22;57944;48.722;9.316;2023-04-26T05:02:14;4.50;99.90
70475;DHT22;57944;48.722;9.316;2023-04-26T05:04:44;5.50;99.90
70475;DHT22;57944;48.722;9.316;2023-04-26T05:07:15;6.20;99.90
70475;DHT22;57944;48.722;9.316;2023-04-26T05:09:47;6.80;99.90
70475;DHT22;57944;48.722;9.316;2023-04-26T05:12:17;7.00;99.90
70475;DHT22;57944;48.722;9.316;2023-04-26T05:14:47;7.30;99.90
70475;DHT22;57944;48.722;9.316;2023-04-26T05:17:17;7.30;99.90
70475;DHT22;57944;48.722;9.316;2023-04-26T05:19:47;7.30;99.90
70475;DHT22;57944;48.722;9.316;2023-04-26T05:22:17;7.50;99.90
70475;DHT22;57944;48.722;9.316;2023-04-26T05:24:51;7.90;99.90
70475;DHT22;57944;48.722;9.316;2023-04-26T05:27:21;8.60;99.90
70475;DHT22;57944;48.722;9.316;2023-04-26T05:30:05;9.30;99.90
70475;DHT22;57944;48.722;9.316;2023-04-26T05:32:55;9.40;99.90
70475;DHT22;57944;48.722;9.316;2023-04-26T05:35:39;9.40;99.90
70475;DHT22;57944;48.722;9.316;2023-04-26T05:38:09;9.30;99.90
70475;DHT22;57944;48.722;9.316;2023-04-26T05:40:42;9.40;99.90
70475;DHT22;57944;48.722;9.316;2023-04-26T05:43:14;9.50;99.90
70475;DHT22;57944;48.722;9.316;2023-04-26T05:45:50;9.60;99.90
70475;DHT22;57944;48.722;9.316;2023-04-26T05:48:21;9.40;99.90
70475;DHT22;57944;48.722;9.316;2023-04-26T05:50:52;9.40;99.90
70475;DHT22;57944;48.722;9.316;2023-04-26T05:53:22;9.60;99.90
70475;DHT22;57944;48.722;9.316;2023-04-26T05:55:54;9.60;99.90
70475;DHT22;57944;48.722;9.316;2023-04-26T05:58:25;10.10;99.90
70475;DHT22;57944;48.722;9.316;2023-04-26T06:00:55;10.80;99.90
70475;DHT22;57944;48.722;9.316;2023-04-26T06:03:25;11.00;99.90
70475;DHT22;57944;48.722;9.316;2023-04-26T06:05:55;11.40;99.90
70475;DHT22;57944;48.722;9.316;2023-04-26T06:08:27;11.50;99.90
70475;DHT22;57944;48.722;9.316;2023-04-26T06:11:00;12.00;99.90
70475;DHT22;57944;48.722;9.316;2023-04-26T06:13:30;12.30;99.90
70475;DHT22;57944;48.722;9.316;2023-04-26T06:16:00;12.60;99.90
70475;DHT22;57944;48.722;9.316;2023-04-26T06:18:30;12.90;99.90
70475;DHT22;57944;48.722;9.316;2023-04-26T06:21:00;13.10;99.90
70475;DHT22;57944;48.722;9.316;2023-04-26T06:23:30;14.00;99.90
70475;DHT22;57944;48.722;9.316;2023-04-26T06:26:02;14.60;99.90
70475;DHT22;57944;48.722;9.316;2023-04-26T06:28:32;15.80;99.90
70475;DHT22;57944;48.722;9.316;2023-04-26T06:31:02;17.50;99.90
70475;DHT22;57944;48.722;9.316;2023-04-26T06:33:32;18.70;99.90
70475;DHT22;57944;48.722;9.316;2023-04-26T06:36:02;19.10;99.80
70475;DHT22;57944;48.722;9.316;2023-04-26T06:38:33;18.60;98.80
70475;DHT22;57944;48.722;9.316;2023-04-26T06:41:06;17.50;98.40
70475;DHT22;57944;48.722;9.316;2023-04-26T06:43:36;16.70;99.60
70475;DHT22;57944;48.722;9.316;2023-04-26T06:46:17;16.10;98.70
70475;DHT22;57944;48.722;9.316;2023-04-26T06:48:52;15.70;99.70
70475;DHT22;57944;48.722;9.316;2023-04-26T06:51:24;16.00;99.90
70475;DHT22;57944;48.722;9.316;2023-04-26T06:53:55;15.80;99.10
70475;DHT22;57944;48.722;9.316;2023-04-26T06:56:29;16.10;99.70
70475;DHT22;57944;48.722;9.316;2023-04-26T06:58:59;17.20;99.00
70475;DHT22;57944;48.722;9.316;2023-04-26T07:01:30;17.70;98.30
70475;DHT22;57944;48.722;9.316;2023-04-26T07:04:02;17.90;98.80
70475;DHT22;57944;48.722;9.316;2023-04-26T07:06:33;17.90;97.20
70475;DHT22;57944;48.722;9.316;2023-04-26T07:09:04;17.80;96.70
70475;DHT22;57944;48.722;9.316;2023-04-26T07:11:37;18.20;96.40
70475;DHT22;57944;48.722;9.316;2023-04-26T07:14:09;19.60;96.00
70475;DHT22;57944;48.722;9.316;2023-04-26T07:16:39;20.30;92.50
70475;DHT22;57944;48.722;9.316;2023-04-26T07:29:13;23.10;81.40
70475;DHT22;57944;48.722;9.316;2023-04-26T07:31:45;22.80;80.80
70475;DHT22;57944;48.722;9.316;2023-04-26T07:34:14;22.50;83.20
70475;DHT22;57944;48.722;9.316;2023-04-26T07:36:45;21.90;80.70
70475;DHT22;57944;48.722;9.316;2023-04-26T07:39:15;21.20;80.50
70475;DHT22;57944;48.722;9.316;2023-04-26T07:41:48;21.20;78.90
70475;DHT22;57944;48.722;9.316;2023-04-26T07:44:18;20.70;79.00
70475;DHT22;57944;48.722;9.316;2023-04-26T07:46:48;19.50;77.90
70475;DHT22;57944;48.722;9.316;2023-04-26T07:49:18;20.30;83.40
70475;DHT22;57944;48.722;9.316;2023-04-26T07:51:47;22.20;79.30
70475;DHT22;57944;48.722;9.316;2023-04-26T07:54:18;23.80;77.90
70475;DHT22;57944;48.722;9.316;2023-04-26T07:56:51;23.80;78.20
70475;DHT22;57944;48.722;9.316;2023-04-26T07:59:21;24.30;79.90
70475;DHT22;57944;48.722;9.316;2023-04-26T08:01:52;23.20;74.30
70475;DHT22;57944;48.722;9.316;2023-04-26T08:04:29;22.30;75.10
70475;DHT22;57944;48.722;9.316;2023-04-26T08:07:01;22.90;76.40
70475;DHT22;57944;48.722;9.316;2023-04-26T08:09:31;22.40;72.90
70475;DHT22;57944;48.722;9.316;2023-04-26T08:12:05;21.90;72.40
70475;DHT22;57944;48.722;9.316;2023-04-26T08:14:36;21.40;72.90
70475;DHT22;57944;48.722;9.316;2023-04-26T08:17:07;19.60;73.70
70475;DHT22;57944;48.722;9.316;2023-04-26T08:19:38;18.70;78.60
70475;DHT22;57944;48.722;9.316;2023-04-26T08:22:08;20.00;75.40
70475;DHT22;57944;48.722;9.316;2023-04-26T08:24:37;19.80;73.80
70475;DHT22;57944;48.722;9.316;2023-04-26T08:27:10;21.60;72.60
70475;DHT22;57944;48.722;9.316;2023-04-26T08:29:40;23.00;71.90
70475;DHT22;57944;48.722;9.316;2023-04-26T08:32:10;23.80;64.40
70475;DHT22;57944;48.722;9.316;2023-04-26T08:34:40;25.70;63.60
70475;DHT22;57944;48.722;9.316;2023-04-26T08:37:11;26.30;62.10
70475;DHT22;57944;48.722;9.316;2023-04-26T08:39:42;27.20;62.70
70475;DHT22;57944;48.722;9.316;2023-04-26T08:42:15;26.90;57.80
70475;DHT22;57944;48.722;9.316;2023-04-26T08:44:46;26.00;57.10
70475;DHT22;57944;48.722;9.316;2023-04-26T08:47:17;26.50;59.00
70475;DHT22;57944;48.722;9.316;2023-04-26T08:49:50;27.70;54.80
70475;DHT22;57944;48.722;9.316;2023-04-26T08:52:26;28.00;54.50
70475;DHT22;57944;48.722;9.316;2023-04-26T08:54:58;26.50;53.90
70475;DHT22;57944;48.722;9.316;2023-04-26T08:57:33;24.00;56.70
70475;DHT22;57944;48.722;9.316;2023-04-26T09:00:04;21.90;57.90
70475;DHT22;57944;48.722;9.316;2023-04-26T09:02:39;20.80;62.30
70475;DHT22;57944;48.722;9.316;2023-04-26T09:05:10;20.40;63.30
70475;DHT22;57944;48.722;9.316;2023-04-26T09:07:41;20.40;65.20
70475;DHT22;57944;48.722;9.316;2023-04-26T09:10:13;21.00;64.70
70475;DHT22;57944;48.722;9.316;2023-04-26T09:12:52;22.50;65.00
70475;DHT22;57944;48.722;9.316;2023-04-26T09:15:23;24.60;59.40
70475;DHT22;57944;48.722;9.316;2023-04-26T09:17:54;24.70;58.80
70475;DHT22;57944;48.722;9.316;2023-04-26T09:20:24;24.50;59.60
70475;DHT22;57944;48.722;9.316;2023-04-26T09:23:03;24.50;57.60
70475;DHT22;57944;48.722;9.316;2023-04-26T09:25:34;24.00;58.60
70475;DHT22;57944;48.722;9.316;2023-04-26T09:28:20;24.60;59.60
70475;DHT22;57944;48.722;9.316;2023-04-26T09:30:51;23.70;58.20
70475;DHT22;57944;48.722;9.316;2023-04-26T09:33:22;22.10;60.40
70475;DHT22;57944;48.722;9.316;2023-04-26T09:35:51;21.50;59.20
70475;DHT22;57944;48.722;9.316;2023-04-26T09:38:21;21.60;59.30
70475;DHT22;57944;48.722;9.316;2023-04-26T09:40:51;23.20;59.00
70475;DHT22;57944;48.722;9.316;2023-04-26T09:43:27;23.50;60.00
70475;DHT22;57944;48.722;9.316;2023-04-26T09:46:05;24.00;59.20
70475;DHT22;57944;48.722;9.316;2023-04-26T09:48:35;24.50;58.50
70475;DHT22;57944;48.722;9.316;2023-04-26T09:51:08;23.20;57.70
70475;DHT22;57944;48.722;9.316;2023-04-26T09:53:39;21.60;58.30
70475;DHT22;57944;48.722;9.316;2023-04-26T09:56:11;21.30;60.30
70475;DHT22;57944;48.722;9.316;2023-04-26T09:58:56;21.70;61.10
70475;DHT22;57944;48.722;9.316;2023-04-26T10:01:30;20.80;59.50
70475;DHT22;57944;48.722;9.316;2023-04-26T10:04:01;20.80;60.80
70475;DHT22;57944;48.722;9.316;2023-04-26T10:06:31;20.40;60.60
70475;DHT22;57944;48.722;9.316;2023-04-26T10:09:02;21.40;60.90
70475;DHT22;57944;48.722;9.316;2023-04-26T10:11:34;20.50;60.30
70475;DHT22;57944;48.722;9.316;2023-04-26T10:14:09;20.60;61.60
70475;DHT22;57944;48.722;9.316;2023-04-26T10:16:40;20.40;61.30
70475;DHT22;57944;48.722;9.316;2023-04-26T10:19:13;20.10;61.30
70475;DHT22;57944;48.722;9.316;2023-04-26T10:21:43;19.70;64.20
70475;DHT22;57944;48.722;9.316;2023-04-26T10:24:14;19.20;64.40
70475;DHT22;57944;48.722;9.316;2023-04-26T10:26:47;19.00;64.20
70475;DHT22;57944;48.722;9.316;2023-04-26T10:29:22;18.50;65.50
70475;DHT22;57944;48.722;9.316;2023-04-26T10:32:06;17.90;65.40
70475;DHT22;57944;48.722;9.316;2023-04-26T10:34:42;18.50;65.60
70475;DHT22;57944;48.722;9.316;2023-04-26T10:37:13;20.10;64.10
70475;DHT22;57944;48.722;9.316;2023-04-26T10:39:44;21.30;62.60
70475;DHT22;57944;48.722;9.316;2023-04-26T10:42:16;21.80;59.90
70475;DHT22;57944;48.722;9.316;2023-04-26T10:44:53;23.30;59.80
70475;DHT22;57944;48.722;9.316;2023-04-26T10:47:28;25.10;58.10
70475;DHT22;57944;48.722;9.316;2023-04-26T10:50:01;25.50;56.00
70475;DHT22;57944;48.722;9.316;2023-04-26T10:52:33;25.40;54.90
70475;DHT22;57944;48.722;9.316;2023-04-26T10:55:04;22.80;56.20
70475;DHT22;57944;48.722;9.316;2023-04-26T10:57:45;20.60;57.70
70475;DHT22;57944;48.722;9.316;2023-04-26T11:00:24;19.30;57.50
70475;DHT22;57944;48.722;9.316;2023-04-26T11:03:01;18.70;58.20
70475;DHT22;57944;48.722;9.316;2023-04-26T11:05:38;18.80;58.70
70475;DHT22;57944;48.722;9.316;2023-04-26T11:08:14;19.40;59.20
70475;DHT22;57944;48.722;9.316;2023-04-26T11:10:48;19.40;60.00
70475;DHT22;57944;48.722;9.316;2023-04-26T11:13:20;19.00;60.50
70475;DHT22;57944;48.722;9.316;2023-04-26T11:15:58;19.60;60.20
70475;DHT22;57944;48.722;9.316;2023-04-26T11:18:30;19.80;60.60
70475;DHT22;57944;48.722;9.316;2023-04-26T11:21:01;19.90;58.10
70475;DHT22;57944;48.722;9.316;2023-04-26T11:23:31;20.30;58.90
70475;DHT22;57944;48.722;9.316;2023-04-26T11:26:02;20.20;58.90
70475;DHT22;57944;48.722;9.316;2023-04-26T11:28:34;21.20;59.00
70475;DHT22;57944;48.722;9.316;2023-04-26T11:31:08;22.20;57.50
70475;DHT22;57944;48.722;9.316;2023-04-26T11:33:40;22.60;57.90
70475;DHT22;57944;48.722;9.316;2023-04-26T11:36:10;22.50;56.60
70475;DHT22;57944;48.722;9.316;2023-04-26T11:38:40;22.50;56.50
70475;DHT22;57944;48.722;9.316;2023-04-26T11:41:10;22.30;56.80
70475;DHT22;57944;48.722;9.316;2023-04-26T11:43:40;23.00;58.10
70475;DHT22;57944;48.722;9.316;2023-04-26T11:46:13;23.70;55.80
70475;DHT22;57944;48.722;9.316;2023-04-26T11:48:43;24.50;55.60
70475;DHT22;57944;48.722;9.316;2023-04-26T11:51:13;25.70;54.10
70475;DHT22;57944;48.722;9.316;2023-04-26T11:53:43;25.30;52.60
70475;DHT22;57944;48.722;9.316;2023-04-26T11:56:13;24.40;53.40
70475;DHT22;57944;48.722;9.316;2023-04-26T11:58:45;22.80;55.60
70475;DHT22;57944;48.722;9.316;2023-04-26T12:01:22;21.70;56.10
70475;DHT22;57944;48.722;9.316;2023-04-26T12:03:54;21.50;56.10
70475;DHT22;57944;48.722;9.316;2023-04-26T12:06:28;22.30;56.90
70475;DHT22;57944;48.722;9.316;2023-04-26T12:09:00;21.40;56.10
70475;DHT22;57944;48.722;9.316;2023-04-26T12:11:31;21.10;56.80
70475;DHT22;57944;48.722;9.316;2023-04-26T12:14:01;21.10;56.60
70475;DHT22;57944;48.722;9.316;2023-04-26T12:16:36;20.70;56.40
70475;DHT22;57944;48.722;9.316;2023-04-26T12:19:07;21.50;56.80
70475;DHT22;57944;48.722;9.316;2023-04-26T12:21:39;23.60;56.50
70475;DHT22;57944;48.722;9.316;2023-04-26T12:24:22;24.70;53.90
70475;DHT22;57944;48.722;9.316;2023-04-26T12:26:52;24.80;53.50
70475;DHT22;57944;48.722;9.316;2023-04-26T12:29:22;24.90;53.40
70475;DHT22;57944;48.722;9.316;2023-04-26T12:31:54;24.20;54.00
70475;DHT22;57944;48.722;9.316;2023-04-26T12:34:25;22.50;53.20
70475;DHT22;57944;48.722;9.316;2023-04-26T12:36:55;21.20;55.30
70475;DHT22;57944;48.722;9.316;2023-04-26T12:39:24;19.70;57.80
70475;DHT22;57944;48.722;9.316;2023-04-26T12:41:54;19.50;57.50
70475;DHT22;57944;48.722;9.316;2023-04-26T12:44:24;18.80;57.70
70475;DHT22;57944;48.722;9.316;2023-04-26T12:46:57;18.30;59.00
70475;DHT22;57944;48.722;9.316;2023-04-26T12:49:27;17.80;59.30
70475;DHT22;57944;48.722;9.316;2023-04-26T12:51:57;18.20;59.70
70475;DHT22;57944;48.722;9.316;2023-04-26T12:54:27;19.00;59.10
70475;DHT22;57944;48.722;9.316;2023-04-26T12:56:57;20.10;58.80
70475;DHT22;57944;48.722;9.316;2023-04-26T12:59:27;22.20;58.10
70475;DHT22;57944;48.722;9.316;2023-04-26T13:02:00;24.60;55.30
70475;DHT22;57944;48.722;9.316;2023-04-26T13:04:30;23.90;52.70
70475;DHT22;57944;48.722;9.316;2023-04-26T13:07:03;22.80;52.50
70475;DHT22;57944;48.722;9.316;2023-04-26T13:09:34;22.70;54.30
70475;DHT22;57944;48.722;9.316;2023-04-26T13:12:04;21.80;54.90
70475;DHT22;57944;48.722;9.316;2023-04-26T13:14:34;21.30;55.00
70475;DHT22;57944;48.722;9.316;2023-04-26T13:17:07;21.30;56.00
70475;DHT22;57944;48.722;9.316;2023-04-26T13:19:37;22.40;55.50
70475;DHT22;57944;48.722;9.316;2023-04-26T13:22:08;23.60;53.60
70475;DHT22;57944;48.722;9.316;2023-04-26T13:24:39;24.00;53.30
70475;DHT22;57944;48.722;9.316;2023-04-26T13:27:09;24.30;52.70
70475;DHT22;57944;48.722;9.316;2023-04-26T13:29:39;25.40;52.40
70475;DHT22;57944;48.722;9.316;2023-04-26T13:32:12;25.50;51.90
70475;DHT22;57944;48.722;9.316;2023-04-26T13:34:43;25.20;52.10
70475;DHT22;57944;48.722;9.316;2023-04-26T13:37:13;25.60;51.90
70475;DHT22;57944;48.722;9.316;2023-04-26T13:39:44;24.30;50.80
70475;DHT22;57944;48.722;9.316;2023-04-26T13:42:14;23.10;52.60
70475;DHT22;57944;48.722;9.316;2023-04-26T13:44:46;23.10;54.20
70475;DHT22;57944;48.722;9.316;2023-04-26T13:47:19;23.80;55.00
70475;DHT22;57944;48.722;9.316;2023-04-26T13:49:49;25.50;52.80
70475;DHT22;57944;48.722;9.316;2023-04-26T13:52:18;25.70;49.90
70475;DHT22;57944;48.722;9.316;2023-04-26T13:54:48;24.90;50.00
70475;DHT22;57944;48.722;9.316;2023-04-26T13:57:18;23.60;52.10
70475;DHT22;57944;48.722;9.316;2023-04-26T13:59:49;22.50;52.10
70475;DHT22;57944;48.722;9.316;2023-04-26T14:02:21;22.50;53.20
70475;DHT22;57944;48.722;9.316;2023-04-26T14:04:51;22.70;52.90
70475;DHT22;57944;48.722;9.316;2023-04-26T14:07:21;23.90;53.30
70475;DHT22;57944;48.722;9.316;2023-04-26T14:09:51;24.00;53.50
70475;DHT22;57944;48.722;9.316;2023-04-26T14:12:21;23.40;52.80
70475;DHT22;57944;48.722;9.316;2023-04-26T14:14:51;23.20;53.00
70475;DHT22;57944;48.722;9.316;2023-04-26T14:17:24;22.30;52.70
70475;DHT22;57944;48.722;9.316;2023-04-26T14:19:54;21.60;54.70
70475;DHT22;57944;48.722;9.316;2023-04-26T14:22:25;21.20;53.10
70475;DHT22;57944;48.722;9.316;2023-04-26T14:24:55;20.60;55.00
70475;DHT22;57944;48.722;9.316;2023-04-26T14:27:25;20.80;55.20
70475;DHT22;57944;48.722;9.316;2023-04-26T14:29:55;21.00;54.40
70475;DHT22;57944;48.722;9.316;2023-04-26T14:32:27;21.70;54.90
70475;DHT22;57944;48.722;9.316;2023-04-26T14:34:58;21.60;53.70
70475;DHT22;57944;48.722;9.316;2023-04-26T14:37:27;21.60;54.20
70475;DHT22;57944;48.722;9.316;2023-04-26T14:39:58;22.00;53.80
70475;DHT22;57944;48.722;9.316;2023-04-26T14:42:28;21.60;52.90
70475;DHT22;57944;48.722;9.316;2023-04-26T14:44:58;22.50;54.50
70475;DHT22;57944;48.722;9.316;2023-04-26T14:47:31;23.50;53.70
70475;DHT22;57944;48.722;9.316;2023-04-26T14:50:01;23.90;52.70
70475;DHT22;57944;48.722;9.316;2023-04-26T14:52:32;22.30;52.50
70475;DHT22;57944;48.722;9.316;2023-04-26T14:55:03;20.80;54.90
70475;DHT22;57944;48.722;9.316;2023-04-26T14:57:33;19.60;55.10
70475;DHT22;57944;48.722;9.316;2023-04-26T15:00:04;18.50;56.90
70475;DHT22;57944;48.722;9.316;2023-04-26T15:02:42;18.60;57.70
70475;DHT22;57944;48.722;9.316;2023-04-26T15:05:13;18.60;57.30
70475;DHT22;57944;48.722;9.316;2023-04-26T15:07:43;18.40;58.20
70475;DHT22;57944;48.722;9.316;2023-04-26T15:10:13;17.70;58.60
70475;DHT22;57944;48.722;9.316;2023-04-26T15:12:43;17.10;59.10
70475;DHT22;57944;48.722;9.316;2023-04-26T15:15:13;16.70;59.90
70475;DHT22;57944;48.722;9.316;2023-04-26T15:17:45;16.90;60.30
70475;DHT22;57944;48.722;9.316;2023-04-26T15:20:15;17.10;60.50
70475;DHT22;57944;48.722;9.316;2023-04-26T15:22:45;17.10;59.60
70475;DHT22;57944;48.722;9.316;2023-04-26T15:25:15;16.70;60.00
70475;DHT22;57944;48.722;9.316;2023-04-26T15:27:45;16.30;60.50
70475;DHT22;57944;48.722;9.316;2023-04-26T15:30:16;16.40;61.70
70475;DHT22;57944;48.722;9.316;2023-04-26T15:32:49;17.10;60.90
70475;DHT22;57944;48.722;9.316;2023-04-26T15:35:19;18.10;60.40
70475;DHT22;57944;48.722;9.316;2023-04-26T15:37:50;19.30;58.40
70475;DHT22;57944;48.722;9.316;2023-04-26T15:40:21;19.80;58.70
70475;DHT22;57944;48.722;9.316;2023-04-26T15:42:52;20.50;57.40
70475;DHT22;57944;48.722;9.316;2023-04-26T15:45:22;20.70;57.10
70475;DHT22;57944;48.722;9.316;2023-04-26T15:47:54;20.10;57.10
70475;DHT22;57944;48.722;9.316;2023-04-26T15:50:24;19.50;57.10
70475;DHT22;57944;48.722;9.316;2023-04-26T15:52:54;19.10;58.00
70475;DHT22;57944;48.722;9.316;2023-04-26T15:55:24;19.80;57.90
70475;DHT22;57944;48.722;9.316;2023-04-26T15:57:55;19.70;57.10
70475;DHT22;57944;48.722;9.316;2023-04-26T16:00:25;19.40;57.90
70475;DHT22;57944;48.722;9.316;2023-04-26T16:02:59;19.40;59.50
70475;DHT22;57944;48.722;9.316;2023-04-26T16:05:30;19.30;58.10
70475;DHT22;57944;48.722;9.316;2023-04-26T16:08:00;19.20;59.00
70475;DHT22;57944;48.722;9.316;2023-04-26T16:10:31;19.50;58.60
70475;DHT22;57944;48.722;9.316;2023-04-26T16:13:03;19.00;58.50
70475;DHT22;57944;48.722;9.316;2023-04-26T16:15:33;19.60;58.80
70475;DHT22;57944;48.722;9.316;2023-04-26T16:18:06;20.00;58.20
70475;DHT22;57944;48.722;9.316;2023-04-26T16:20:36;18.80;57.80
70475;DHT22;57944;48.722;9.316;2023-04-26T16:23:06;19.20;60.10
70475;DHT22;57944;48.722;9.316;2023-04-26T16:25:36;19.40;58.60
70475;DHT22;57944;48.722;9.316;2023-04-26T16:28:07;19.50;59.40
70475;DHT22;57944;48.722;9.316;2023-04-26T16:30:37;19.40;58.80
70475;DHT22;57944;48.722;9.316;2023-04-26T16:33:10;18.50;58.20
70475;DHT22;57944;48.722;9.316;2023-04-26T16:35:40;18.40;60.00
70475;DHT22;57944;48.722;9.316;2023-04-26T16:38:10;18.60;60.90
70475;DHT22;57944;48.722;9.316;2023-04-26T16:40:40;18.80;58.80
70475;DHT22;57944;48.722;9.316;2023-04-26T16:43:10;18.50;59.90
70475;DHT22;57944;48.722;9.316;2023-04-26T16:45:41;17.80;60.50
70475;DHT22;57944;48.722;9.316;2023-04-26T16:48:14;17.20;61.00
70475;DHT22;57944;48.722;9.316;2023-04-26T16:50:44;16.80;61.50
70475;DHT22;57944;48.722;9.316;2023-04-26T16:53:14;16.60;62.50
70475;DHT22;57944;48.722;9.316;2023-04-26T16:55:44;16.20;63.80
70475;DHT22;57944;48.722;9.316;2023-04-26T16:58:15;16.00;64.70
70475;DHT22;57944;48.722;9.316;2023-04-26T17:00:45;15.90;65.30
70475;DHT22;57944;48.722;9.316;2023-04-26T17:03:18;15.80;66.10
70475;DHT22;57944;48.722;9.316;2023-04-26T17:05:50;16.10;65.00
70475;DHT22;57944;48.722;9.316;2023-04-26T17:08:20;16.50;65.00
70475;DHT22;57944;48.722;9.316;2023-04-26T17:10:49;16.40;64.10
70475;DHT22;57944;48.722;9.316;2023-04-26T17:13:20;16.20;64.90
70475;DHT22;57944;48.722;9.316;2023-04-26T17:15:55;15.60;64.70
70475;DHT22;57944;48.722;9.316;2023-04-26T17:18:27;15.10;66.50
70475;DHT22;57944;48.722;9.316;2023-04-26T17:20:57;15.00;67.30
70475;DHT22;57944;48.722;9.316;2023-04-26T17:23:27;15.20;66.90
70475;DHT22;57944;48.722;9.316;2023-04-26T17:25:59;15.30;66.00
70475;DHT22;57944;48.722;9.316;2023-04-26T17:28:30;15.00;65.70
70475;DHT22;57944;48.722;9.316;2023-04-26T17:31:00;14.80;66.70
70475;DHT22;57944;48.722;9.316;2023-04-26T17:33:32;14.50;67.40
70475;DHT22;57944;48.722;9.316;2023-04-26T17:36:02;14.10;68.50
70475;DHT22;57944;48.722;9.316;2023-04-26T17:38:33;13.70;68.70
70475;DHT22;57944;48.722;9.316;2023-04-26T17:41:03;13.40;69.80
70475;DHT22;57944;48.722;9.316;2023-04-26T17:43:33;13.00;71.20
70475;DHT22;57944;48.722;9.316;2023-04-26T17:46:03;12.70;72.50
70475;DHT22;57944;48.722;9.316;2023-04-26T17:48:35;12.50;73.30
70475;DHT22;57944;48.722;9.316;2023-04-26T17:51:06;12.40;73.70
70475;DHT22;57944;48.722;9.316;2023-04-26T17:53:35;12.20;74.10
70475;DHT22;57944;48.722;9.316;2023-04-26T17:56:05;12.10;75.10
70475;DHT22;57944;48.722;9.316;2023-04-26T17:58:36;12.00;75.20
70475;DHT22;57944;48.722;9.316;2023-04-26T18:01:06;11.70;75.90
70475;DHT22;57944;48.722;9.316;2023-04-26T18:03:38;11.50;77.10
70475;DHT22;57944;48.722;9.316;2023-04-26T18:06:08;11.40;77.30
70475;DHT22;57944;48.722;9.316;2023-04-26T18:08:41;11.20;79.00
70475;DHT22;57944;48.722;9.316;2023-04-26T18:11:11;11.10;78.70
70475;DHT22;57944;48.722;9.316;2023-04-26T18:13:41;11.00;79.50
70475;DHT22;57944;48.722;9.316;2023-04-26T18:16:13;10.90;80.00